YHK weather

Gjoa Haven Airport
Gjoa Haven, Nunavut, Canada

Public forecast

Using degrees Celsius for public forecast. Weather courtesy of forecast.io.

METAR (pilot weather report)

Report is more than 6 hours old.

Retrieved 2019/07/22 00:00 UTC (11 hours ago):

CYHK 220000Z 17012KT 15SM SCT230 12/06 A2996 RMK CS3 LAST STAFFED OBS/NXT 221200Z VIA CYHZ SLP150

TAF (pilot weather forecast)

Retrieved 2019/07/22 06:42 UTC (4 hours ago):

TAF CYHK 220539Z 2206/2218 FCST NOT AVBL DUE NO OBS RMK FCST BASED ON AUTO OBS. NXT FCST BY 221200Z